Time;durP1;ratioP1;P1;durP2;ratioP2;P2;SDS_P1;SDS_P2;PMS_P1;PMS_P2;Temp;Humidity;BMP_temperature;BMP_pressure;BME280_temperature;BME280_humidity;BME280_pressure;Samples;Min_cycle;Max_cycle;Signal;HPM_P1;HPM_P2
2021/11/23 00:00:28;;;;;;;8.10;6.95;;;6.80;99.90;;;;;;5074869;28;20270;-65
2021/11/23 00:02:55;;;;;;;7.47;5.60;;;6.80;99.90;;;;;;5074460;28;20248;-65
2021/11/23 00:05:22;;;;;;;9.05;6.22;;;6.80;99.90;;;;;;5074213;28;20224;-65
2021/11/23 00:07:49;;;;;;;7.40;6.15;;;6.80;99.90;;;;;;5073943;28;20235;-65
2021/11/23 00:10:16;;;;;;;8.43;6.53;;;6.80;99.90;;;;;;5074569;28;20231;-65
2021/11/23 00:12:44;;;;;;;8.55;6.22;;;6.70;99.90;;;;;;5074058;28;20890;-65
2021/11/23 00:15:12;;;;;;;7.43;6.07;;;6.70;99.90;;;;;;5074581;28;20244;-65
2021/11/23 00:17:40;;;;;;;7.00;6.30;;;6.70;99.90;;;;;;5074461;28;20224;-65
2021/11/23 00:20:08;;;;;;;9.90;6.45;;;6.60;99.90;;;;;;5071458;28;20228;-65
2021/11/23 00:22:36;;;;;;;6.35;5.68;;;6.60;99.90;;;;;;5074496;28;20228;-65
2021/11/23 00:25:05;;;;;;;6.97;6.25;;;6.60;99.90;;;;;;5074188;28;20219;-65
2021/11/23 00:27:37;;;;;;;6.80;6.10;;;6.60;99.90;;;;;;5074028;28;20220;-66
2021/11/23 00:30:05;;;;;;;7.22;6.63;;;6.60;99.90;;;;;;5072936;28;20231;-65
2021/11/23 00:32:33;;;;;;;9.05;6.30;;;6.50;99.90;;;;;;5071957;28;20231;-65
2021/11/23 00:35:00;;;;;;;15.32;13.07;;;6.50;99.90;;;;;;5070520;28;20239;-65
2021/11/23 00:37:36;;;;;;;9.93;7.63;;;6.50;99.90;;;;;;5071809;28;20224;-65
2021/11/23 00:40:04;;;;;;;9.40;6.45;;;6.50;99.90;;;;;;5073094;28;20250;-65
2021/11/23 00:42:31;;;;;;;8.80;6.57;;;6.50;99.90;;;;;;5074429;28;20220;-65
2021/11/23 00:44:58;;;;;;;7.53;6.82;;;6.50;99.90;;;;;;5074007;28;20637;-66
2021/11/23 00:47:25;;;;;;;6.88;6.20;;;6.50;99.90;;;;;;5074350;28;20228;-65
2021/11/23 00:49:53;;;;;;;6.47;5.88;;;6.50;99.90;;;;;;5073875;28;20232;-65
2021/11/23 00:52:20;;;;;;;6.10;5.25;;;6.50;99.90;;;;;;5074321;28;20601;-65
2021/11/23 00:54:47;;;;;;;7.35;6.65;;;6.50;99.90;;;;;;5073924;28;20285;-65
2021/11/23 00:57:15;;;;;;;15.18;9.93;;;6.50;99.90;;;;;;5074295;28;20247;-65
2021/11/23 00:59:41;;;;;;;7.47;6.05;;;6.50;99.90;;;;;;5073752;28;20682;-65
2021/11/23 01:02:08;;;;;;;7.03;6.40;;;6.50;99.90;;;;;;5074216;28;20219;-65
2021/11/23 01:04:36;;;;;;;8.27;7.03;;;6.50;99.90;;;;;;5074085;28;20224;-65
2021/11/23 01:07:04;;;;;;;7.07;6.47;;;6.60;99.90;;;;;;5073590;28;20242;-65
2021/11/23 01:09:31;;;;;;;8.63;6.63;;;6.50;99.90;;;;;;5073877;28;20236;-65
2021/11/23 01:11:59;;;;;;;7.95;6.75;;;6.50;99.90;;;;;;5073405;28;20231;-65
2021/11/23 01:14:26;;;;;;;6.45;5.75;;;6.50;99.90;;;;;;5073775;28;20239;-66
2021/11/23 01:16:53;;;;;;;9.60;8.60;;;6.50;99.90;;;;;;5072894;28;20248;-65
2021/11/23 01:19:20;;;;;;;7.93;5.90;;;6.50;99.90;;;;;;5073510;28;20741;-65
2021/11/23 01:21:48;;;;;;;8.10;6.30;;;6.50;99.90;;;;;;5073215;28;20228;-65
2021/11/23 01:24:16;;;;;;;8.40;7.60;;;6.60;99.90;;;;;;5073709;28;20779;-65
2021/11/23 01:26:43;;;;;;;7.22;6.63;;;6.50;99.90;;;;;;5073392;28;20224;-65
2021/11/23 01:29:11;;;;;;;6.85;6.15;;;6.50;99.90;;;;;;5073569;28;20228;-65
2021/11/23 01:31:39;;;;;;;7.18;6.55;;;6.50;99.90;;;;;;5073500;28;20223;-65
2021/11/23 01:34:06;;;;;;;10.05;7.22;;;6.60;99.90;;;;;;5072879;28;20683;-66
2021/11/23 01:36:33;;;;;;;7.25;6.45;;;6.50;99.90;;;;;;5073327;28;20755;-65
2021/11/23 01:39:01;;;;;;;11.52;7.80;;;6.50;99.90;;;;;;5073081;28;20235;-65
2021/11/23 01:41:29;;;;;;;9.57;6.93;;;6.50;99.90;;;;;;5073412;28;20385;-66
2021/11/23 01:43:56;;;;;;;7.30;6.55;;;6.50;99.90;;;;;;5072860;28;20228;-65
2021/11/23 01:46:23;;;;;;;10.38;7.70;;;6.50;99.90;;;;;;5073322;28;20231;-65
2021/11/23 01:48:50;;;;;;;6.93;6.25;;;6.50;99.90;;;;;;5072651;28;20228;-65
2021/11/23 01:51:17;;;;;;;6.30;5.68;;;6.60;99.90;;;;;;5073361;28;20231;-65
2021/11/23 01:53:44;;;;;;;6.55;5.80;;;6.50;99.90;;;;;;5073220;28;20224;-65
2021/11/23 01:56:11;;;;;;;7.60;6.90;;;6.50;99.90;;;;;;5072663;28;20220;-65
2021/11/23 01:58:39;;;;;;;7.07;5.50;;;6.60;99.90;;;;;;5073202;28;20239;-65
2021/11/23 02:01:07;;;;;;;6.85;6.25;;;6.60;99.90;;;;;;5072492;28;20694;-65
2021/11/23 02:03:35;;;;;;;9.48;6.50;;;6.70;99.90;;;;;;5072994;28;20736;-66
2021/11/23 02:06:02;;;;;;;7.30;6.60;;;6.70;99.90;;;;;;5072627;28;20227;-65
2021/11/23 02:08:29;;;;;;;7.68;6.25;;;6.70;99.90;;;;;;5072699;28;20223;-65
2021/11/23 02:10:57;;;;;;;7.53;6.82;;;6.80;99.90;;;;;;5072325;28;20289;-65
2021/11/23 02:13:24;;;;;;;10.00;7.18;;;6.80;99.90;;;;;;5072896;28;20220;-65
2021/11/23 02:15:52;;;;;;;14.02;7.78;;;6.80;99.90;;;;;;5072518;28;20289;-65
2021/11/23 02:18:21;;;;;;;7.75;6.90;;;6.80;99.90;;;;;;5072847;28;20220;-65
2021/11/23 02:20:51;;;;;;;10.52;8.57;;;6.80;99.90;;;;;;5072438;28;20238;-65
2021/11/23 02:23:18;;;;;;;7.65;6.90;;;6.80;99.90;;;;;;5072702;28;20236;-65
2021/11/23 02:25:46;;;;;;;9.80;6.75;;;6.90;99.90;;;;;;5072831;28;20228;-65
2021/11/23 02:28:14;;;;;;;7.65;6.90;;;6.80;99.90;;;;;;5072268;28;20503;-65
2021/11/23 02:30:44;;;;;;;7.40;6.15;;;6.80;99.90;;;;;;5072672;28;20228;-65
2021/11/23 02:33:12;;;;;;;12.50;10.82;;;6.80;99.90;;;;;;5072311;28;20227;-65
2021/11/23 02:35:39;;;;;;;7.18;6.47;;;6.80;99.90;;;;;;5072599;28;20231;-65
2021/11/23 02:38:08;;;;;;;9.30;7.53;;;6.80;99.90;;;;;;5072275;28;20235;-65
2021/11/23 02:40:35;;;;;;;10.30;7.70;;;6.80;99.90;;;;;;5072667;28;20227;-65
2021/11/23 02:43:02;;;;;;;11.05;7.82;;;6.80;99.90;;;;;;5072098;28;20228;-66
2021/11/23 02:45:29;;;;;;;7.93;6.50;;;6.90;99.90;;;;;;5072570;28;20289;-65
2021/11/23 02:47:58;;;;;;;8.63;7.60;;;6.90;99.90;;;;;;5072005;28;20297;-65
2021/11/23 02:50:26;;;;;;;7.60;6.15;;;6.90;99.90;;;;;;5072534;28;20285;-65
2021/11/23 02:52:54;;;;;;;9.75;6.75;;;6.90;99.90;;;;;;5072006;28;20236;-66
2021/11/23 02:55:25;;;;;;;7.20;6.50;;;7.00;99.90;;;;;;5072353;28;20740;-66
2021/11/23 02:57:53;;;;;;;9.27;7.53;;;7.00;99.90;;;;;;5072041;28;20716;-66
2021/11/23 03:00:24;;;;;;;7.75;6.45;;;7.00;99.90;;;;;;5072494;28;20615;-66
2021/11/23 03:02:51;;;;;;;20.73;12.05;;;7.00;99.90;;;;;;5072676;28;20592;-66
2021/11/23 03:05:20;;;;;;;14.60;9.00;;;7.00;99.90;;;;;;5072304;28;20977;-66
2021/11/23 03:07:47;;;;;;;9.10;7.35;;;7.10;99.90;;;;;;5072454;28;20223;-66
2021/11/23 03:10:15;;;;;;;6.88;6.10;;;7.10;99.90;;;;;;5071901;28;20227;-66
2021/11/23 03:12:47;;;;;;;6.88;5.72;;;7.10;99.90;;;;;;5072449;28;20232;-66
2021/11/23 03:15:15;;;;;;;9.32;7.05;;;7.20;99.90;;;;;;5071833;28;20228;-64
2021/11/23 03:17:42;;;;;;;7.38;5.70;;;7.20;99.90;;;;;;5072277;28;20220;-64
2021/11/23 03:20:11;;;;;;;7.38;6.65;;;7.30;99.90;;;;;;5058304;28;20252;-64
2021/11/23 03:22:39;;;;;;;8.10;7.30;;;7.30;99.90;;;;;;5051351;28;20224;-64
2021/11/23 03:25:07;;;;;;;10.60;7.28;;;7.30;99.90;;;;;;5050915;28;20224;-64
2021/11/23 03:27:35;;;;;;;9.73;7.60;;;7.30;99.90;;;;;;5051466;28;20578;-64
2021/11/23 03:30:06;;;;;;;9.43;6.60;;;7.30;99.90;;;;;;5051009;28;20225;-64
2021/11/23 03:32:33;;;;;;;9.43;7.45;;;7.30;99.90;;;;;;5051038;28;20252;-64
2021/11/23 03:35:00;;;;;;;7.85;7.10;;;7.30;99.90;;;;;;5051130;28;20221;-64
2021/11/23 03:37:27;;;;;;;9.05;7.22;;;7.30;99.90;;;;;;5052302;28;20229;-64
2021/11/23 03:39:55;;;;;;;8.38;7.47;;;7.30;99.90;;;;;;5052063;28;20233;-65
2021/11/23 03:42:23;;;;;;;9.00;7.50;;;7.30;99.90;;;;;;5060420;28;20256;-64
2021/11/23 03:44:57;;;;;;;10.60;7.45;;;7.40;99.90;;;;;;5073715;28;20231;-64
2021/11/23 03:47:28;;;;;;;11.02;7.70;;;7.40;99.90;;;;;;5055377;28;20230;-64
2021/11/23 03:49:56;;;;;;;8.48;7.63;;;7.40;99.90;;;;;;5055533;28;20265;-64
2021/11/23 03:52:23;;;;;;;13.80;8.32;;;7.40;99.90;;;;;;5055166;28;20221;-64
2021/11/23 03:54:50;;;;;;;8.98;8.07;;;7.40;99.90;;;;;;5055288;28;20232;-65
2021/11/23 03:57:18;;;;;;;7.97;7.18;;;7.40;99.90;;;;;;5054890;28;20229;-65
2021/11/23 03:59:47;;;;;;;8.85;7.95;;;7.30;99.90;;;;;;5055466;28;20225;-65
2021/11/23 04:02:15;;;;;;;7.88;7.18;;;7.30;99.90;;;;;;5054615;28;20241;-65
2021/11/23 04:04:44;;;;;;;9.40;8.50;;;7.30;99.90;;;;;;5055081;28;20221;-65
2021/11/23 04:07:11;;;;;;;11.30;8.18;;;7.30;99.90;;;;;;5059912;28;20307;-65
2021/11/23 04:09:38;;;;;;;10.63;7.68;;;7.40;99.90;;;;;;5075091;28;20228;-65
2021/11/23 04:12:06;;;;;;;9.55;7.43;;;7.40;99.90;;;;;;5074730;28;20228;-65
2021/11/23 04:14:33;;;;;;;15.60;10.18;;;7.30;99.90;;;;;;5075056;28;20258;-65
2021/11/23 04:17:00;;;;;;;11.63;7.40;;;7.30;99.90;;;;;;5074110;28;20247;-65
2021/11/23 04:19:28;;;;;;;9.95;8.82;;;7.30;99.90;;;;;;5074676;28;20254;-65
2021/11/23 04:21:57;;;;;;;11.50;8.02;;;7.30;99.90;;;;;;5074694;28;20231;-65
2021/11/23 04:24:24;;;;;;;11.82;8.85;;;7.40;99.90;;;;;;5073986;28;20231;-65
2021/11/23 04:26:50;;;;;;;8.57;7.72;;;7.40;99.90;;;;;;5074872;28;20224;-65
2021/11/23 04:29:18;;;;;;;9.55;8.35;;;7.40;99.90;;;;;;5074266;28;20236;-64
2021/11/23 04:31:45;;;;;;;12.23;10.18;;;7.40;99.90;;;;;;5074278;28;20212;-64
2021/11/23 04:34:12;;;;;;;10.45;8.77;;;7.50;99.90;;;;;;5074049;28;20239;-64
2021/11/23 04:36:40;;;;;;;8.07;7.38;;;7.50;99.90;;;;;;5074116;28;20232;-65
2021/11/23 04:39:11;;;;;;;9.55;8.05;;;7.50;99.90;;;;;;5074016;28;20235;-64
2021/11/23 04:41:38;;;;;;;10.30;8.15;;;7.50;99.90;;;;;;5074368;28;20293;-64
2021/11/23 04:44:05;;;;;;;11.38;9.07;;;7.50;99.90;;;;;;5074021;28;20613;-64
2021/11/23 04:46:32;;;;;;;10.57;9.18;;;7.50;99.90;;;;;;5074487;28;20220;-64
2021/11/23 04:48:59;;;;;;;12.07;8.88;;;7.50;99.90;;;;;;5074420;28;20309;-64
2021/11/23 04:51:26;;;;;;;9.13;8.18;;;7.50;99.90;;;;;;5074287;28;20303;-64
2021/11/23 04:53:53;;;;;;;9.23;8.32;;;7.50;99.90;;;;;;5074347;28;20248;-65
2021/11/23 04:56:21;;;;;;;9.05;8.10;;;7.50;99.90;;;;;;5073854;28;20293;-64
2021/11/23 04:58:48;;;;;;;9.45;8.45;;;7.50;99.90;;;;;;5074272;28;20224;-64
2021/11/23 05:01:15;;;;;;;12.25;8.80;;;7.50;99.90;;;;;;5073841;28;20216;-65
2021/11/23 05:03:42;;;;;;;9.65;8.65;;;7.40;99.90;;;;;;5074264;28;20273;-64
2021/11/23 05:06:09;;;;;;;13.00;8.88;;;7.50;99.90;;;;;;5073591;28;20227;-65
2021/11/23 05:08:36;;;;;;;10.05;9.02;;;7.50;99.90;;;;;;5074151;28;20230;-64
2021/11/23 05:11:04;;;;;;;9.75;8.70;;;7.60;99.90;;;;;;5074125;28;20565;-64
2021/11/23 05:13:32;;;;;;;9.27;8.38;;;7.60;99.90;;;;;;5073810;28;20238;-64
2021/11/23 05:15:59;;;;;;;12.10;9.65;;;7.70;99.90;;;;;;5074028;28;20764;-64
2021/11/23 05:18:26;;;;;;;9.88;8.85;;;7.70;99.90;;;;;;5073497;28;20227;-65
2021/11/23 05:20:53;;;;;;;11.88;9.77;;;7.60;99.90;;;;;;5073685;28;20297;-64
2021/11/23 05:23:20;;;;;;;11.48;8.95;;;7.70;99.90;;;;;;5073364;28;20658;-64
2021/11/23 05:25:47;;;;;;;14.65;10.77;;;7.60;99.90;;;;;;5073803;28;20369;-65
2021/11/23 05:28:14;;;;;;;9.95;9.05;;;7.60;99.90;;;;;;5073182;28;20215;-65
2021/11/23 05:30:42;;;;;;;12.90;10.90;;;7.60;99.90;;;;;;5073855;28;20232;-64
2021/11/23 05:33:09;;;;;;;13.15;10.23;;;7.60;99.90;;;;;;5073004;28;20236;-64
2021/11/23 05:35:36;;;;;;;12.70;11.23;;;7.60;99.90;;;;;;5073403;28;20223;-65
2021/11/23 05:38:03;;;;;;;13.80;10.60;;;7.60;99.90;;;;;;5073411;28;20220;-65
2021/11/23 05:40:30;;;;;;;13.60;10.15;;;7.70;99.90;;;;;;5072954;28;20670;-64
2021/11/23 05:42:57;;;;;;;17.00;12.73;;;7.70;99.90;;;;;;5073234;28;20220;-65
2021/11/23 05:45:24;;;;;;;13.43;10.30;;;7.70;99.90;;;;;;5072874;28;20617;-64
2021/11/23 05:47:52;;;;;;;13.00;10.38;;;7.70;99.90;;;;;;5073193;28;20416;-64
2021/11/23 05:50:19;;;;;;;12.60;11.27;;;7.80;99.90;;;;;;5072616;28;20234;-65
2021/11/23 05:52:46;;;;;;;11.75;10.65;;;7.80;99.90;;;;;;5073344;28;20235;-65
2021/11/23 05:55:13;;;;;;;13.85;10.88;;;7.80;99.90;;;;;;5072518;28;20224;-65
2021/11/23 05:57:40;;;;;;;11.07;9.88;;;7.80;99.90;;;;;;5073192;28;20365;-64
2021/11/23 06:00:08;;;;;;;11.48;10.30;;;7.80;99.90;;;;;;5073075;28;20227;-64
2021/11/23 06:02:35;;;;;;;16.40;10.63;;;7.80;99.90;;;;;;5072727;28;20231;-65
2021/11/23 06:05:04;;;;;;;17.25;10.80;;;7.90;99.90;;;;;;5072440;28;20869;-64
2021/11/23 06:07:31;;;;;;;11.85;10.65;;;7.90;99.90;;;;;;5072659;28;20231;-65
2021/11/23 06:09:58;;;;;;;13.10;10.85;;;7.90;99.90;;;;;;5072783;28;20227;-65
2021/11/23 06:12:28;;;;;;;14.07;11.27;;;7.90;99.90;;;;;;5072522;28;20239;-65
2021/11/23 06:14:55;;;;;;;15.70;12.18;;;7.90;99.90;;;;;;5072928;28;20535;-64
2021/11/23 06:17:22;;;;;;;15.90;12.15;;;7.90;99.90;;;;;;5072441;28;20224;-66
2021/11/23 06:19:49;;;;;;;14.10;11.90;;;7.90;99.90;;;;;;5072573;28;20838;-65
2021/11/23 06:22:18;;;;;;;14.25;12.20;;;8.00;99.90;;;;;;5072462;28;20247;-65
2021/11/23 06:24:45;;;;;;;16.15;12.57;;;8.00;99.90;;;;;;5072711;28;20830;-65
2021/11/23 06:27:12;;;;;;;21.85;16.23;;;8.00;99.90;;;;;;5072674;28;20301;-65
2021/11/23 06:29:39;;;;;;;13.48;11.50;;;8.10;99.90;;;;;;5072437;28;21024;-65
2021/11/23 06:32:06;;;;;;;14.70;11.48;;;8.10;99.90;;;;;;5072730;28;20277;-64
2021/11/23 06:34:34;;;;;;;15.32;12.13;;;8.10;99.90;;;;;;5072183;28;20747;-66
2021/11/23 06:37:01;;;;;;;23.02;12.95;;;8.10;99.90;;;;;;5072480;28;20228;-66
2021/11/23 06:39:29;;;;;;;16.13;10.98;;;8.20;99.90;;;;;;5072066;28;20311;-66
2021/11/23 06:41:56;;;;;;;14.60;10.50;;;8.30;99.90;;;;;;5072652;28;20224;-65
2021/11/23 06:44:23;;;;;;;13.25;11.85;;;8.20;99.90;;;;;;5072208;28;20282;-65
2021/11/23 06:46:50;;;;;;;13.57;12.18;;;8.20;99.90;;;;;;5072376;28;20227;-65
2021/11/23 06:49:17;;;;;;;19.70;13.55;;;8.30;99.90;;;;;;5071988;28;20231;-65
2021/11/23 06:51:44;;;;;;;14.52;12.48;;;8.20;99.90;;;;;;5072399;28;20588;-65
2021/11/23 06:54:11;;;;;;;14.20;12.48;;;8.30;99.90;;;;;;5072342;28;20227;-65
2021/11/23 06:56:39;;;;;;;17.60;12.60;;;8.30;99.90;;;;;;5072114;28;20277;-65
2021/11/23 06:59:06;;;;;;;13.90;11.98;;;8.30;99.90;;;;;;5072262;28;20220;-66
2021/11/23 07:01:33;;;;;;;17.60;13.90;;;8.30;99.90;;;;;;5071839;28;20227;-65
2021/11/23 07:04:00;;;;;;;19.35;11.73;;;8.40;99.90;;;;;;5072461;28;20216;-66
2021/11/23 07:06:27;;;;;;;15.82;12.52;;;8.30;99.90;;;;;;5071732;28;20269;-66
2021/11/23 07:08:54;;;;;;;17.92;14.05;;;8.40;99.90;;;;;;5072372;28;20249;-65
2021/11/23 07:11:21;;;;;;;14.27;12.18;;;8.40;99.90;;;;;;5071969;28;20228;-66
2021/11/23 07:13:49;;;;;;;15.35;12.90;;;8.40;99.90;;;;;;5072267;28;20224;-65
2021/11/23 07:16:16;;;;;;;13.77;12.27;;;8.40;99.90;;;;;;5074074;28;20257;-65
2021/11/23 07:18:43;;;;;;;19.73;13.32;;;8.40;99.90;;;;;;5076136;28;21248;-66
2021/11/23 07:21:10;;;;;;;15.80;12.60;;;8.40;99.90;;;;;;5075664;28;20231;-66
2021/11/23 07:23:36;;;;;;;21.33;14.00;;;8.40;99.90;;;;;;5075658;28;20224;-65
2021/11/23 07:26:03;;;;;;;19.08;14.73;;;8.40;99.90;;;;;;5075886;28;20227;-65
2021/11/23 07:28:30;;;;;;;17.27;12.90;;;8.40;99.90;;;;;;5075336;28;20281;-65
2021/11/23 07:30:59;;;;;;;22.48;13.35;;;8.40;99.90;;;;;;5076014;28;20293;-66
2021/11/23 07:33:26;;;;;;;17.27;13.30;;;8.50;99.90;;;;;;5075311;28;20619;-65
2021/11/23 07:35:53;;;;;;;16.08;14.45;;;8.50;99.90;;;;;;5075500;28;20578;-65
2021/11/23 07:38:20;;;;;;;15.32;11.32;;;8.50;99.90;;;;;;5075206;28;20232;-65
2021/11/23 07:40:47;;;;;;;16.70;12.95;;;8.50;99.90;;;;;;5075658;28;20231;-65
2021/11/23 07:43:14;;;;;;;15.00;12.68;;;8.50;99.90;;;;;;5075337;28;20246;-66
2021/11/23 07:45:42;;;;;;;13.15;11.75;;;8.50;99.90;;;;;;5075434;28;20302;-63
2021/11/23 07:48:11;;;;;;;15.65;12.25;;;8.50;99.90;;;;;;5075425;28;20224;-65
2021/11/23 07:50:38;;;;;;;19.00;13.52;;;8.50;99.90;;;;;;5074920;28;20365;-66
2021/11/23 07:53:05;;;;;;;15.90;12.95;;;8.50;99.90;;;;;;5075534;28;20231;-66
2021/11/23 07:55:33;;;;;;;15.02;12.13;;;8.50;99.90;;;;;;5074878;28;20236;-66
2021/11/23 07:58:00;;;;;;;12.85;10.48;;;8.50;99.90;;;;;;5075308;28;20220;-65
2021/11/23 08:00:28;;;;;;;17.30;13.38;;;8.50;99.90;;;;;;5074979;28;20227;-65
2021/11/23 08:02:55;;;;;;;14.52;12.82;;;8.60;99.90;;;;;;5075251;28;20725;-65
2021/11/23 08:05:24;;;;;;;15.38;12.20;;;8.60;99.90;;;;;;5074551;28;20227;-66
2021/11/23 08:07:51;;;;;;;18.38;12.70;;;8.60;99.90;;;;;;5075460;28;20281;-65
2021/11/23 08:10:18;;;;;;;16.05;12.60;;;8.60;99.90;;;;;;5075009;28;20307;-66
2021/11/23 08:12:46;;;;;;;16.38;12.65;;;8.60;99.90;;;;;;5074622;28;20243;-66
2021/11/23 08:15:13;;;;;;;14.43;12.50;;;8.60;99.90;;;;;;5075090;28;20307;-66
2021/11/23 08:17:40;;;;;;;16.60;13.15;;;8.70;99.90;;;;;;5074435;28;20624;-65
2021/11/23 08:20:09;;;;;;;16.25;12.73;;;8.60;99.90;;;;;;5074942;28;20227;-65
2021/11/23 08:22:38;;;;;;;12.90;11.50;;;8.70;99.90;;;;;;5074564;28;20232;-65
2021/11/23 08:25:06;;;;;;;18.65;13.43;;;8.70;99.90;;;;;;5074699;28;20277;-65
2021/11/23 08:27:33;;;;;;;17.77;14.70;;;8.70;99.90;;;;;;5074222;28;20231;-65
2021/11/23 08:30:00;;;;;;;23.52;18.80;;;8.70;99.90;;;;;;5074827;28;20228;-66
2021/11/23 08:32:27;;;;;;;22.15;15.77;;;8.70;99.90;;;;;;5074156;28;20235;-66
2021/11/23 08:34:54;;;;;;;23.38;17.20;;;8.70;99.90;;;;;;5074905;28;20696;-66
2021/11/23 08:37:21;;;;;;;16.00;14.30;;;8.70;99.90;;;;;;5074480;28;20228;-65
2021/11/23 08:39:50;;;;;;;18.08;14.90;;;8.70;99.90;;;;;;5074126;28;20224;-65
2021/11/23 08:42:20;;;;;;;16.60;13.25;;;8.80;99.90;;;;;;5074569;28;20224;-66
2021/11/23 08:44:47;;;;;;;20.95;14.95;;;8.80;99.90;;;;;;5074149;28;20220;-65
2021/11/23 08:47:14;;;;;;;13.80;12.18;;;8.80;99.90;;;;;;5074348;28;20216;-66
2021/11/23 08:49:41;;;;;;;19.13;14.02;;;8.80;99.90;;;;;;5073920;28;20231;-65
2021/11/23 08:52:08;;;;;;;17.55;13.35;;;8.80;99.90;;;;;;5074252;28;20219;-66
2021/11/23 08:54:35;;;;;;;15.98;13.48;;;8.80;99.90;;;;;;5073806;28;20228;-66
2021/11/23 08:57:05;;;;;;;16.73;13.77;;;8.80;99.90;;;;;;5074266;28;20223;-65
2021/11/23 08:59:33;;;;;;;16.15;13.40;;;8.80;99.90;;;;;;5073588;28;20235;-66
2021/11/23 09:02:00;;;;;;;20.88;14.18;;;8.80;99.90;;;;;;5074180;28;20216;-65
2021/11/23 09:04:28;;;;;;;17.10;12.82;;;8.80;99.90;;;;;;5073709;28;20285;-66
2021/11/23 09:06:56;;;;;;;18.65;13.07;;;8.90;99.90;;;;;;5074094;28;20224;-66
2021/11/23 09:09:26;;;;;;;22.17;14.82;;;8.90;99.90;;;;;;5073954;28;20622;-66
2021/11/23 09:11:53;;;;;;;15.18;11.90;;;8.90;99.90;;;;;;5073862;28;20774;-65
2021/11/23 09:14:21;;;;;;;12.40;10.93;;;8.90;99.90;;;;;;5073986;28;20346;-65
2021/11/23 09:16:48;;;;;;;15.25;11.82;;;9.00;99.90;;;;;;5073196;28;20224;-66
2021/11/23 09:19:15;;;;;;;14.43;11.35;;;9.00;99.90;;;;;;5073751;28;20228;-65
2021/11/23 09:21:42;;;;;;;13.68;10.65;;;9.00;99.90;;;;;;5073319;28;20223;-64
2021/11/23 09:24:09;;;;;;;11.95;10.68;;;9.00;99.90;;;;;;5073657;28;20227;-65
2021/11/23 09:26:36;;;;;;;10.82;9.68;;;9.00;99.90;;;;;;5073287;28;20227;-64
2021/11/23 09:29:04;;;;;;;15.25;10.60;;;9.00;99.90;;;;;;5073572;28;20600;-64
2021/11/23 09:31:32;;;;;;;14.68;10.63;;;9.00;99.90;;;;;;5073085;28;20285;-64
2021/11/23 09:33:59;;;;;;;15.98;11.43;;;9.10;99.90;;;;;;5073511;28;20223;-65
2021/11/23 09:36:26;;;;;;;17.80;12.25;;;9.10;99.90;;;;;;5073351;28;20561;-65
2021/11/23 09:38:53;;;;;;;17.83;11.65;;;9.10;99.90;;;;;;5072339;28;20562;-65
2021/11/23 09:41:20;;;;;;;14.18;12.38;;;9.10;99.90;;;;;;5073509;28;20219;-64
2021/11/23 09:43:47;;;;;;;12.52;11.25;;;9.10;99.90;;;;;;5072981;28;20558;-65
2021/11/23 09:46:14;;;;;;;16.75;12.43;;;9.20;99.90;;;;;;5073430;28;20224;-65
2021/11/23 09:48:44;;;;;;;17.00;13.13;;;9.20;99.90;;;;;;5072963;28;20281;-64
2021/11/23 09:51:15;;;;;;;15.93;12.27;;;9.20;99.90;;;;;;5072960;28;20227;-65
2021/11/23 09:53:42;;;;;;;18.00;12.15;;;9.20;99.90;;;;;;5072777;28;20231;-65
2021/11/23 09:56:09;;;;;;;16.83;12.52;;;9.20;99.90;;;;;;5073088;28;20232;-65
2021/11/23 09:58:36;;;;;;;15.38;12.02;;;9.30;99.90;;;;;;5072613;28;20231;-64
2021/11/23 10:01:06;;;;;;;16.60;13.05;;;9.20;99.90;;;;;;5073166;28;20582;-65
2021/11/23 10:03:34;;;;;;;16.83;12.18;;;9.20;99.90;;;;;;5072782;28;20547;-65
2021/11/23 10:06:10;;;;;;;16.52;12.55;;;9.20;99.90;;;;;;5072698;28;20273;-64
2021/11/23 10:08:38;;;;;;;15.27;12.13;;;9.20;99.90;;;;;;5072340;28;20285;-65
2021/11/23 10:11:05;;;;;;;15.55;11.82;;;9.20;99.90;;;;;;5072922;28;20236;-65
2021/11/23 10:13:48;;;;;;;17.80;12.18;;;9.20;99.90;;;;;;5072876;28;20224;-64
2021/11/23 10:16:15;;;;;;;20.00;13.43;;;9.30;99.90;;;;;;5072684;28;20220;-64
2021/11/23 10:18:43;;;;;;;13.85;10.57;;;9.30;99.90;;;;;;5072788;28;20231;-65
2021/11/23 10:21:13;;;;;;;22.67;16.48;;;9.30;99.90;;;;;;5072752;28;20223;-65
2021/11/23 10:23:42;;;;;;;15.75;13.75;;;9.30;99.90;;;;;;5072804;28;20215;-64
2021/11/23 10:26:13;;;;;;;14.73;12.80;;;9.30;99.90;;;;;;5072795;28;20220;-65
2021/11/23 10:28:43;;;;;;;16.55;13.57;;;9.20;99.90;;;;;;5072402;28;20303;-65
2021/11/23 10:31:11;;;;;;;18.77;13.88;;;9.20;99.90;;;;;;5072659;28;20255;-65
2021/11/23 10:33:39;;;;;;;17.35;14.32;;;9.30;99.90;;;;;;5072142;28;20251;-65
2021/11/23 10:36:09;;;;;;;19.25;14.25;;;9.30;99.90;;;;;;5072696;28;20220;-65
2021/11/23 10:38:39;;;;;;;17.92;14.20;;;9.30;99.90;;;;;;5072091;28;20238;-65
2021/11/23 10:41:07;;;;;;;18.33;14.30;;;9.30;99.90;;;;;;5072596;28;20231;-65
2021/11/23 10:43:37;;;;;;;16.75;12.35;;;9.30;99.90;;;;;;5072334;28;20253;-65
2021/11/23 10:46:04;;;;;;;18.08;12.38;;;9.40;99.90;;;;;;5072697;28;20694;-65
2021/11/23 10:48:31;;;;;;;19.13;14.30;;;9.40;99.90;;;;;;5072084;28;20273;-64
2021/11/23 10:51:05;;;;;;;16.85;13.05;;;9.50;99.90;;;;;;5075785;28;20220;-65
2021/11/23 10:53:33;;;;;;;18.88;12.10;;;9.50;99.90;;;;;;5076463;28;20224;-65
2021/11/23 10:56:11;;;;;;;14.32;11.63;;;9.50;99.90;;;;;;5076688;28;20224;-65
2021/11/23 10:58:39;;;;;;;13.52;11.23;;;9.50;99.90;;;;;;5075996;28;20240;-64
2021/11/23 11:01:09;;;;;;;13.95;11.25;;;9.60;99.90;;;;;;5057928;28;20232;-64
2021/11/23 11:03:37;;;;;;;17.73;12.77;;;9.50;99.90;;;;;;5069451;28;20246;-65
2021/11/23 11:06:05;;;;;;;19.55;12.50;;;9.60;99.90;;;;;;5076173;28;20223;-65
2021/11/23 11:08:35;;;;;;;17.95;12.80;;;9.70;99.90;;;;;;5075984;28;20709;-65
2021/11/23 11:11:03;;;;;;;14.18;10.98;;;9.70;99.90;;;;;;5076259;28;20820;-65
2021/11/23 11:13:32;;;;;;;13.98;11.65;;;9.70;99.90;;;;;;5075727;28;20231;-65
2021/11/23 11:16:00;;;;;;;12.57;9.82;;;9.70;99.90;;;;;;5076253;28;20232;-64
2021/11/23 11:18:28;;;;;;;17.13;13.00;;;9.70;99.90;;;;;;5075585;28;20647;-65
2021/11/23 11:20:59;;;;;;;13.88;12.15;;;9.70;99.90;;;;;;5075641;28;20231;-65
2021/11/23 11:23:28;;;;;;;14.95;12.77;;;9.70;99.90;;;;;;5075701;28;20220;-64
2021/11/23 11:26:19;;;;;;;13.05;11.65;;;9.80;99.90;;;;;;5076189;28;20606;-64
2021/11/23 11:28:50;;;;;;;15.98;14.15;;;9.80;99.90;;;;;;5075339;28;20211;-64
2021/11/23 11:31:44;;;;;;;13.45;10.73;;;9.80;99.90;;;;;;5075766;28;20254;-65
2021/11/23 11:34:18;;;;;;;13.50;12.15;;;9.80;99.90;;;;;;5066072;28;20225;-65
2021/11/23 11:36:47;;;;;;;17.05;14.60;;;9.80;99.90;;;;;;5055800;28;20314;-65
2021/11/23 11:39:48;;;;;;;17.77;13.80;;;9.80;99.90;;;;;;5055069;28;20236;-64
2021/11/23 11:42:49;;;;;;;16.55;12.48;;;9.80;99.90;;;;;;5055105;28;20248;-65
2021/11/23 11:45:19;;;;;;;16.88;13.05;;;9.90;99.90;;;;;;5055172;28;20547;-64
2021/11/23 11:47:47;;;;;;;13.70;11.50;;;9.90;99.90;;;;;;5055737;28;20555;-65
2021/11/23 11:50:21;;;;;;;15.60;11.27;;;10.00;99.90;;;;;;5054909;28;20236;-65
2021/11/23 11:53:09;;;;;;;16.33;11.68;;;9.90;99.90;;;;;;5055517;28;20220;-65
2021/11/23 11:55:50;;;;;;;15.38;12.02;;;10.00;99.90;;;;;;5069081;28;20946;-65
2021/11/23 11:58:45;;;;;;;17.83;13.73;;;10.00;99.90;;;;;;5066653;28;20251;-65
2021/11/23 12:01:32;;;;;;;16.70;13.10;;;10.00;99.90;;;;;;5062483;28;20303;-65
2021/11/23 12:04:06;;;;;;;14.55;12.18;;;10.00;99.90;;;;;;5074087;28;20574;-65
2021/11/23 12:07:08;;;;;;;14.20;12.40;;;10.00;99.90;;;;;;5074724;28;20224;-64
2021/11/23 12:09:38;;;;;;;12.07;10.88;;;10.00;99.90;;;;;;5065491;28;20224;-65
2021/11/23 12:12:44;;;;;;;12.30;11.10;;;10.00;99.90;;;;;;5072634;28;20670;-65
2021/11/23 12:15:18;;;;;;;16.85;10.25;;;10.10;99.90;;;;;;5071376;28;20215;-65
2021/11/23 12:17:58;;;;;;;14.60;11.15;;;10.10;99.90;;;;;;5074605;28;20242;-65
2021/11/23 12:20:46;;;;;;;12.55;10.88;;;10.10;99.90;;;;;;5074343;28;20223;-65
2021/11/23 12:23:17;;;;;;;13.93;12.52;;;10.10;99.90;;;;;;5074444;28;20250;-65
2021/11/23 12:25:56;;;;;;;14.82;11.27;;;10.10;99.90;;;;;;5074990;28;20289;-65
2021/11/23 12:28:24;;;;;;;12.05;10.55;;;10.20;99.90;;;;;;5074193;28;20231;-65
2021/11/23 12:30:51;;;;;;;16.67;11.27;;;10.20;99.90;;;;;;5070046;28;20739;-65
2021/11/23 12:33:20;;;;;;;17.10;10.40;;;10.20;99.90;;;;;;5074097;28;20232;-65
2021/11/23 12:35:48;;;;;;;12.32;11.02;;;10.20;99.90;;;;;;5074457;28;20289;-66
2021/11/23 12:38:27;;;;;;;11.68;10.50;;;10.20;99.90;;;;;;5073923;28;20605;-65
2021/11/23 12:40:56;;;;;;;21.70;12.75;;;10.30;99.90;;;;;;5074093;28;20239;-65
2021/11/23 12:43:23;;;;;;;18.17;10.57;;;10.30;99.90;;;;;;5073941;28;20236;-65
2021/11/23 12:45:50;;;;;;;15.93;11.25;;;10.30;99.90;;;;;;5073606;28;20224;-65
2021/11/23 12:48:32;;;;;;;13.52;11.90;;;10.40;99.90;;;;;;5073663;28;20231;-65
2021/11/23 12:50:59;;;;;;;14.48;9.00;;;10.30;99.90;;;;;;5073235;28;20224;-65